sensor_id;sensor_type;location;lat;lon;timestamp;P1;durP1;ratioP1;P2;durP2;ratioP2
70270;SDS011;57680;54.292;18.598;2023-01-15T00:01:23;14.67;;;4.67;;
70270;SDS011;57680;54.292;18.598;2023-01-15T00:03:51;13.07;;;4.40;;
70270;SDS011;57680;54.292;18.598;2023-01-15T00:06:17;15.00;;;4.70;;
70270;SDS011;57680;54.292;18.598;2023-01-15T00:08:43;12.75;;;4.50;;
70270;SDS011;57680;54.292;18.598;2023-01-15T00:11:09;13.48;;;4.50;;
70270;SDS011;57680;54.292;18.598;2023-01-15T00:13:35;13.40;;;4.80;;
70270;SDS011;57680;54.292;18.598;2023-01-15T00:16:08;11.90;;;4.30;;
70270;SDS011;57680;54.292;18.598;2023-01-15T00:18:36;15.10;;;4.53;;
70270;SDS011;57680;54.292;18.598;2023-01-15T00:21:02;12.60;;;4.80;;
70270;SDS011;57680;54.292;18.598;2023-01-15T00:23:30;11.90;;;4.40;;
70270;SDS011;57680;54.292;18.598;2023-01-15T00:26:20;12.85;;;4.75;;
70270;SDS011;57680;54.292;18.598;2023-01-15T00:29:05;11.90;;;4.55;;
70270;SDS011;57680;54.292;18.598;2023-01-15T00:31:31;17.77;;;5.60;;
70270;SDS011;57680;54.292;18.598;2023-01-15T00:33:59;12.10;;;5.03;;
70270;SDS011;57680;54.292;18.598;2023-01-15T00:36:25;12.73;;;4.65;;
70270;SDS011;57680;54.292;18.598;2023-01-15T00:38:51;13.73;;;4.93;;
70270;SDS011;57680;54.292;18.598;2023-01-15T00:41:17;12.73;;;5.10;;
70270;SDS011;57680;54.292;18.598;2023-01-15T00:43:42;12.15;;;5.13;;
70270;SDS011;57680;54.292;18.598;2023-01-15T00:46:08;13.30;;;5.00;;
70270;SDS011;57680;54.292;18.598;2023-01-15T00:48:34;14.48;;;5.03;;
70270;SDS011;57680;54.292;18.598;2023-01-15T00:51:00;14.10;;;5.03;;
70270;SDS011;57680;54.292;18.598;2023-01-15T00:53:26;12.77;;;4.90;;
70270;SDS011;57680;54.292;18.598;2023-01-15T00:55:51;13.57;;;4.80;;
70270;SDS011;57680;54.292;18.598;2023-01-15T00:58:17;14.40;;;4.88;;
70270;SDS011;57680;54.292;18.598;2023-01-15T01:00:43;12.93;;;5.03;;
70270;SDS011;57680;54.292;18.598;2023-01-15T01:03:08;14.90;;;5.83;;
70270;SDS011;57680;54.292;18.598;2023-01-15T01:05:33;12.63;;;4.53;;
70270;SDS011;57680;54.292;18.598;2023-01-15T01:07:59;12.63;;;4.50;;
70270;SDS011;57680;54.292;18.598;2023-01-15T01:10:25;11.90;;;4.80;;
70270;SDS011;57680;54.292;18.598;2023-01-15T01:12:51;12.02;;;4.53;;
70270;SDS011;57680;54.292;18.598;2023-01-15T01:15:19;13.50;;;4.30;;
70270;SDS011;57680;54.292;18.598;2023-01-15T01:17:46;10.90;;;4.23;;
70270;SDS011;57680;54.292;18.598;2023-01-15T01:20:12;11.85;;;4.18;;
70270;SDS011;57680;54.292;18.598;2023-01-15T01:22:39;11.68;;;4.43;;
70270;SDS011;57680;54.292;18.598;2023-01-15T01:25:04;13.77;;;4.45;;
70270;SDS011;57680;54.292;18.598;2023-01-15T01:27:30;11.50;;;4.20;;
70270;SDS011;57680;54.292;18.598;2023-01-15T01:29:56;12.32;;;3.88;;
70270;SDS011;57680;54.292;18.598;2023-01-15T01:32:21;13.53;;;4.20;;
70270;SDS011;57680;54.292;18.598;2023-01-15T01:34:47;13.67;;;4.20;;
70270;SDS011;57680;54.292;18.598;2023-01-15T01:37:12;9.45;;;3.25;;
70270;SDS011;57680;54.292;18.598;2023-01-15T01:39:39;9.97;;;3.80;;
70270;SDS011;57680;54.292;18.598;2023-01-15T01:42:09;11.23;;;3.55;;
70270;SDS011;57680;54.292;18.598;2023-01-15T01:47:06;10.30;;;3.10;;
70270;SDS011;57680;54.292;18.598;2023-01-15T01:49:34;9.30;;;3.55;;
70270;SDS011;57680;54.292;18.598;2023-01-15T01:52:10;12.68;;;3.20;;
70270;SDS011;57680;54.292;18.598;2023-01-15T01:54:43;9.13;;;3.25;;
70270;SDS011;57680;54.292;18.598;2023-01-15T01:57:11;10.50;;;3.40;;
70270;SDS011;57680;54.292;18.598;2023-01-15T01:59:39;10.07;;;3.17;;
70270;SDS011;57680;54.292;18.598;2023-01-15T02:02:04;9.88;;;3.13;;
70270;SDS011;57680;54.292;18.598;2023-01-15T02:04:30;9.10;;;3.43;;
70270;SDS011;57680;54.292;18.598;2023-01-15T02:06:57;9.70;;;3.13;;
70270;SDS011;57680;54.292;18.598;2023-01-15T02:09:24;11.10;;;3.58;;
70270;SDS011;57680;54.292;18.598;2023-01-15T02:11:50;7.90;;;3.38;;
70270;SDS011;57680;54.292;18.598;2023-01-15T02:14:25;9.27;;;3.30;;
70270;SDS011;57680;54.292;18.598;2023-01-15T02:28:09;7.13;;;2.73;;
70270;SDS011;57680;54.292;18.598;2023-01-15T02:30:47;9.80;;;2.85;;
70270;SDS011;57680;54.292;18.598;2023-01-15T02:33:17;7.30;;;2.60;;
70270;SDS011;57680;54.292;18.598;2023-01-15T02:35:49;8.48;;;3.05;;
70270;SDS011;57680;54.292;18.598;2023-01-15T02:38:22;8.80;;;3.10;;
70270;SDS011;57680;54.292;18.598;2023-01-15T02:40:52;11.13;;;3.20;;
70270;SDS011;57680;54.292;18.598;2023-01-15T02:43:21;7.30;;;2.53;;
70270;SDS011;57680;54.292;18.598;2023-01-15T02:45:48;8.70;;;2.60;;
70270;SDS011;57680;54.292;18.598;2023-01-15T02:48:16;7.93;;;2.78;;
70270;SDS011;57680;54.292;18.598;2023-01-15T02:50:46;9.07;;;2.92;;
70270;SDS011;57680;54.292;18.598;2023-01-15T02:53:17;8.07;;;2.77;;
70270;SDS011;57680;54.292;18.598;2023-01-15T02:55:48;7.22;;;2.63;;
70270;SDS011;57680;54.292;18.598;2023-01-15T02:58:16;8.00;;;2.60;;
70270;SDS011;57680;54.292;18.598;2023-01-15T03:00:48;7.93;;;2.45;;
70270;SDS011;57680;54.292;18.598;2023-01-15T03:06:04;7.53;;;2.20;;
70270;SDS011;57680;54.292;18.598;2023-01-15T03:08:34;7.68;;;2.20;;
70270;SDS011;57680;54.292;18.598;2023-01-15T03:13:54;8.90;;;2.60;;
70270;SDS011;57680;54.292;18.598;2023-01-15T03:16:39;6.97;;;2.20;;
70270;SDS011;57680;54.292;18.598;2023-01-15T03:19:23;6.50;;;2.00;;
70270;SDS011;57680;54.292;18.598;2023-01-15T03:24:27;7.83;;;2.30;;
70270;SDS011;57680;54.292;18.598;2023-01-15T03:26:58;6.07;;;2.00;;
70270;SDS011;57680;54.292;18.598;2023-01-15T03:29:26;7.75;;;2.20;;
70270;SDS011;57680;54.292;18.598;2023-01-15T03:31:55;7.97;;;2.10;;
70270;SDS011;57680;54.292;18.598;2023-01-15T03:34:24;8.03;;;2.53;;
70270;SDS011;57680;54.292;18.598;2023-01-15T03:36:51;6.93;;;1.85;;
70270;SDS011;57680;54.292;18.598;2023-01-15T03:39:17;7.90;;;1.97;;
70270;SDS011;57680;54.292;18.598;2023-01-15T04:03:31;8.53;;;2.47;;
70270;SDS011;57680;54.292;18.598;2023-01-15T04:05:58;6.63;;;1.98;;
70270;SDS011;57680;54.292;18.598;2023-01-15T04:08:27;7.22;;;2.50;;
70270;SDS011;57680;54.292;18.598;2023-01-15T04:10:59;7.55;;;2.30;;
70270;SDS011;57680;54.292;18.598;2023-01-15T04:13:26;6.35;;;2.10;;
70270;SDS011;57680;54.292;18.598;2023-01-15T04:15:53;7.53;;;2.13;;
70270;SDS011;57680;54.292;18.598;2023-01-15T04:18:21;10.40;;;2.50;;
70270;SDS011;57680;54.292;18.598;2023-01-15T04:20:47;5.88;;;2.28;;
70270;SDS011;57680;54.292;18.598;2023-01-15T04:23:13;7.80;;;2.20;;
70270;SDS011;57680;54.292;18.598;2023-01-15T04:25:39;7.45;;;2.25;;
70270;SDS011;57680;54.292;18.598;2023-01-15T04:28:05;7.40;;;2.13;;
70270;SDS011;57680;54.292;18.598;2023-01-15T04:30:31;7.78;;;2.13;;
70270;SDS011;57680;54.292;18.598;2023-01-15T04:32:57;6.72;;;2.97;;
70270;SDS011;57680;54.292;18.598;2023-01-15T04:35:25;8.73;;;2.40;;
70270;SDS011;57680;54.292;18.598;2023-01-15T04:38:06;8.73;;;2.45;;
70270;SDS011;57680;54.292;18.598;2023-01-15T04:40:32;6.43;;;2.37;;
70270;SDS011;57680;54.292;18.598;2023-01-15T04:43:15;6.80;;;1.98;;
70270;SDS011;57680;54.292;18.598;2023-01-15T04:45:59;6.80;;;2.00;;
70270;SDS011;57680;54.292;18.598;2023-01-15T04:48:25;5.77;;;1.97;;
70270;SDS011;57680;54.292;18.598;2023-01-15T04:50:51;7.45;;;2.10;;
70270;SDS011;57680;54.292;18.598;2023-01-15T04:53:16;5.57;;;2.17;;
70270;SDS011;57680;54.292;18.598;2023-01-15T04:55:42;6.50;;;2.03;;
70270;SDS011;57680;54.292;18.598;2023-01-15T04:58:08;7.15;;;2.40;;
70270;SDS011;57680;54.292;18.598;2023-01-15T05:00:34;7.53;;;2.20;;
70270;SDS011;57680;54.292;18.598;2023-01-15T05:02:59;7.47;;;1.90;;
70270;SDS011;57680;54.292;18.598;2023-01-15T05:05:24;5.67;;;2.30;;
70270;SDS011;57680;54.292;18.598;2023-01-15T05:07:50;5.53;;;1.87;;
70270;SDS011;57680;54.292;18.598;2023-01-15T05:10:15;8.33;;;2.47;;
70270;SDS011;57680;54.292;18.598;2023-01-15T05:12:41;5.40;;;2.20;;
70270;SDS011;57680;54.292;18.598;2023-01-15T05:15:06;6.17;;;2.00;;
70270;SDS011;57680;54.292;18.598;2023-01-15T05:17:32;6.20;;;2.10;;
70270;SDS011;57680;54.292;18.598;2023-01-15T05:19:58;6.75;;;2.58;;
70270;SDS011;57680;54.292;18.598;2023-01-15T05:22:25;7.20;;;2.30;;
70270;SDS011;57680;54.292;18.598;2023-01-15T05:24:50;7.20;;;2.50;;
70270;SDS011;57680;54.292;18.598;2023-01-15T05:27:16;6.23;;;2.00;;
70270;SDS011;57680;54.292;18.598;2023-01-15T05:29:41;7.63;;;2.10;;
70270;SDS011;57680;54.292;18.598;2023-01-15T05:32:07;7.00;;;2.40;;
70270;SDS011;57680;54.292;18.598;2023-01-15T05:34:32;7.57;;;2.40;;
70270;SDS011;57680;54.292;18.598;2023-01-15T05:36:58;6.03;;;2.08;;
70270;SDS011;57680;54.292;18.598;2023-01-15T05:39:23;6.20;;;2.17;;
70270;SDS011;57680;54.292;18.598;2023-01-15T05:41:49;4.97;;;2.00;;
70270;SDS011;57680;54.292;18.598;2023-01-15T05:44:22;5.10;;;1.93;;
70270;SDS011;57680;54.292;18.598;2023-01-15T05:46:53;6.43;;;2.53;;
70270;SDS011;57680;54.292;18.598;2023-01-15T05:49:22;5.77;;;2.20;;
70270;SDS011;57680;54.292;18.598;2023-01-15T05:51:48;6.38;;;2.13;;
70270;SDS011;57680;54.292;18.598;2023-01-15T05:54:16;7.13;;;2.22;;
70270;SDS011;57680;54.292;18.598;2023-01-15T05:56:43;5.50;;;2.00;;
70270;SDS011;57680;54.292;18.598;2023-01-15T05:59:10;5.03;;;2.28;;
70270;SDS011;57680;54.292;18.598;2023-01-15T06:01:36;5.47;;;1.90;;
70270;SDS011;57680;54.292;18.598;2023-01-15T06:04:02;9.38;;;2.10;;
70270;SDS011;57680;54.292;18.598;2023-01-15T06:06:30;5.57;;;2.25;;
70270;SDS011;57680;54.292;18.598;2023-01-15T06:08:56;7.82;;;2.17;;
70270;SDS011;57680;54.292;18.598;2023-01-15T06:11:21;7.63;;;2.03;;
70270;SDS011;57680;54.292;18.598;2023-01-15T06:13:47;5.40;;;2.17;;
70270;SDS011;57680;54.292;18.598;2023-01-15T06:16:12;7.07;;;2.63;;
70270;SDS011;57680;54.292;18.598;2023-01-15T06:18:38;5.17;;;2.30;;
70270;SDS011;57680;54.292;18.598;2023-01-15T06:21:05;6.85;;;2.60;;
70270;SDS011;57680;54.292;18.598;2023-01-15T06:23:32;6.60;;;2.47;;
70270;SDS011;57680;54.292;18.598;2023-01-15T06:26:08;6.05;;;2.13;;
70270;SDS011;57680;54.292;18.598;2023-01-15T06:28:36;4.95;;;2.25;;
70270;SDS011;57680;54.292;18.598;2023-01-15T06:31:06;5.40;;;2.30;;
70270;SDS011;57680;54.292;18.598;2023-01-15T06:33:36;8.95;;;2.20;;
70270;SDS011;57680;54.292;18.598;2023-01-15T06:36:03;5.23;;;1.97;;
70270;SDS011;57680;54.292;18.598;2023-01-15T06:38:29;6.38;;;2.05;;
70270;SDS011;57680;54.292;18.598;2023-01-15T06:40:56;7.28;;;1.92;;
70270;SDS011;57680;54.292;18.598;2023-01-15T06:43:22;5.23;;;2.10;;
70270;SDS011;57680;54.292;18.598;2023-01-15T06:46:07;6.40;;;2.00;;
70270;SDS011;57680;54.292;18.598;2023-01-15T06:48:52;7.00;;;2.30;;
70270;SDS011;57680;54.292;18.598;2023-01-15T06:51:18;5.38;;;2.10;;
70270;SDS011;57680;54.292;18.598;2023-01-15T06:53:45;4.93;;;1.88;;
70270;SDS011;57680;54.292;18.598;2023-01-15T06:56:12;6.47;;;2.03;;
70270;SDS011;57680;54.292;18.598;2023-01-15T06:58:39;5.90;;;2.20;;
70270;SDS011;57680;54.292;18.598;2023-01-15T07:01:12;7.45;;;2.28;;
70270;SDS011;57680;54.292;18.598;2023-01-15T07:03:39;5.57;;;2.30;;
70270;SDS011;57680;54.292;18.598;2023-01-15T07:06:07;6.17;;;2.03;;
70270;SDS011;57680;54.292;18.598;2023-01-15T07:08:34;5.03;;;2.00;;
70270;SDS011;57680;54.292;18.598;2023-01-15T07:11:01;5.47;;;2.00;;
70270;SDS011;57680;54.292;18.598;2023-01-15T07:13:28;5.60;;;2.20;;
70270;SDS011;57680;54.292;18.598;2023-01-15T07:15:53;5.32;;;2.15;;
70270;SDS011;57680;54.292;18.598;2023-01-15T07:18:19;5.83;;;2.23;;
70270;SDS011;57680;54.292;18.598;2023-01-15T07:20:44;5.67;;;2.10;;
70270;SDS011;57680;54.292;18.598;2023-01-15T07:23:10;5.33;;;2.10;;
70270;SDS011;57680;54.292;18.598;2023-01-15T07:25:35;4.70;;;1.70;;
70270;SDS011;57680;54.292;18.598;2023-01-15T07:28:03;5.00;;;2.10;;
70270;SDS011;57680;54.292;18.598;2023-01-15T07:30:28;5.40;;;2.20;;
70270;SDS011;57680;54.292;18.598;2023-01-15T07:32:55;5.07;;;2.43;;
70270;SDS011;57680;54.292;18.598;2023-01-15T07:35:20;6.43;;;2.35;;
70270;SDS011;57680;54.292;18.598;2023-01-15T07:37:49;6.07;;;2.10;;
70270;SDS011;57680;54.292;18.598;2023-01-15T07:40:16;6.65;;;2.20;;
70270;SDS011;57680;54.292;18.598;2023-01-15T07:42:42;5.30;;;2.30;;
70270;SDS011;57680;54.292;18.598;2023-01-15T07:45:26;4.88;;;2.10;;
70270;SDS011;57680;54.292;18.598;2023-01-15T07:48:10;4.68;;;1.83;;
70270;SDS011;57680;54.292;18.598;2023-01-15T07:50:54;5.75;;;2.05;;
70270;SDS011;57680;54.292;18.598;2023-01-15T07:53:20;4.70;;;1.83;;
70270;SDS011;57680;54.292;18.598;2023-01-15T07:55:45;5.17;;;2.17;;
70270;SDS011;57680;54.292;18.598;2023-01-15T07:58:10;5.03;;;2.20;;
70270;SDS011;57680;54.292;18.598;2023-01-15T08:00:36;5.63;;;2.17;;
70270;SDS011;57680;54.292;18.598;2023-01-15T08:03:01;6.23;;;1.83;;
70270;SDS011;57680;54.292;18.598;2023-01-15T08:05:27;4.40;;;1.70;;
70270;SDS011;57680;54.292;18.598;2023-01-15T08:07:53;5.47;;;2.00;;
70270;SDS011;57680;54.292;18.598;2023-01-15T08:10:18;6.33;;;2.30;;
70270;SDS011;57680;54.292;18.598;2023-01-15T08:12:44;5.13;;;1.90;;
70270;SDS011;57680;54.292;18.598;2023-01-15T08:15:29;6.17;;;1.80;;
70270;SDS011;57680;54.292;18.598;2023-01-15T08:17:57;3.85;;;1.00;;
70270;SDS011;57680;54.292;18.598;2023-01-15T08:20:23;5.88;;;0.60;;
70270;SDS011;57680;54.292;18.598;2023-01-15T08:22:50;2.77;;;0.40;;
70270;SDS011;57680;54.292;18.598;2023-01-15T08:25:17;1.55;;;0.40;;
70270;SDS011;57680;54.292;18.598;2023-01-15T08:27:45;1.75;;;0.43;;
70270;SDS011;57680;54.292;18.598;2023-01-15T08:30:12;1.60;;;0.40;;
70270;SDS011;57680;54.292;18.598;2023-01-15T08:32:40;2.33;;;0.50;;
70270;SDS011;57680;54.292;18.598;2023-01-15T08:35:06;1.30;;;0.30;;
70270;SDS011;57680;54.292;18.598;2023-01-15T08:37:32;3.72;;;0.63;;
70270;SDS011;57680;54.292;18.598;2023-01-15T08:39:58;1.65;;;0.40;;
70270;SDS011;57680;54.292;18.598;2023-01-15T08:42:24;2.37;;;0.60;;
70270;SDS011;57680;54.292;18.598;2023-01-15T08:44:49;2.50;;;0.50;;
70270;SDS011;57680;54.292;18.598;2023-01-15T08:47:15;2.28;;;0.70;;
70270;SDS011;57680;54.292;18.598;2023-01-15T08:49:41;2.13;;;0.70;;
70270;SDS011;57680;54.292;18.598;2023-01-15T08:52:07;1.80;;;0.40;;
70270;SDS011;57680;54.292;18.598;2023-01-15T08:54:33;2.47;;;0.70;;
70270;SDS011;57680;54.292;18.598;2023-01-15T08:56:58;2.50;;;0.82;;
70270;SDS011;57680;54.292;18.598;2023-01-15T08:59:24;3.67;;;0.93;;
70270;SDS011;57680;54.292;18.598;2023-01-15T09:01:50;5.53;;;1.10;;
70270;SDS011;57680;54.292;18.598;2023-01-15T09:04:17;3.67;;;0.90;;
70270;SDS011;57680;54.292;18.598;2023-01-15T09:06:43;2.97;;;0.80;;
70270;SDS011;57680;54.292;18.598;2023-01-15T09:09:10;3.05;;;0.80;;
70270;SDS011;57680;54.292;18.598;2023-01-15T09:11:36;4.47;;;1.08;;
70270;SDS011;57680;54.292;18.598;2023-01-15T09:14:04;5.95;;;1.10;;
70270;SDS011;57680;54.292;18.598;2023-01-15T09:16:31;8.75;;;1.45;;
70270;SDS011;57680;54.292;18.598;2023-01-15T09:18:57;11.10;;;2.77;;
70270;SDS011;57680;54.292;18.598;2023-01-15T09:21:23;6.00;;;1.92;;
70270;SDS011;57680;54.292;18.598;2023-01-15T09:23:48;6.87;;;2.10;;
70270;SDS011;57680;54.292;18.598;2023-01-15T09:26:47;5.80;;;1.60;;
70270;SDS011;57680;54.292;18.598;2023-01-15T09:29:06;5.03;;;1.50;;
70270;SDS011;57680;54.292;18.598;2023-01-15T09:31:33;4.88;;;1.35;;
70270;SDS011;57680;54.292;18.598;2023-01-15T09:33:58;6.07;;;1.70;;
70270;SDS011;57680;54.292;18.598;2023-01-15T09:36:27;5.00;;;1.60;;
70270;SDS011;57680;54.292;18.598;2023-01-15T09:38:55;5.10;;;1.50;;
70270;SDS011;57680;54.292;18.598;2023-01-15T09:41:22;6.07;;;1.90;;
70270;SDS011;57680;54.292;18.598;2023-01-15T09:44:11;6.03;;;1.67;;
70270;SDS011;57680;54.292;18.598;2023-01-15T09:55:19;9.43;;;2.42;;
70270;SDS011;57680;54.292;18.598;2023-01-15T09:57:49;7.87;;;2.80;;
70270;SDS011;57680;54.292;18.598;2023-01-15T10:00:19;8.90;;;2.17;;
70270;SDS011;57680;54.292;18.598;2023-01-15T10:02:59;7.97;;;2.00;;
70270;SDS011;57680;54.292;18.598;2023-01-15T10:05:37;6.15;;;1.80;;
70270;SDS011;57680;54.292;18.598;2023-01-15T10:08:20;5.20;;;1.50;;
70270;SDS011;57680;54.292;18.598;2023-01-15T10:10:51;6.60;;;2.00;;
70270;SDS011;57680;54.292;18.598;2023-01-15T10:13:24;6.35;;;1.50;;
70270;SDS011;57680;54.292;18.598;2023-01-15T10:16:10;6.63;;;1.60;;
70270;SDS011;57680;54.292;18.598;2023-01-15T10:18:36;6.80;;;2.03;;
70270;SDS011;57680;54.292;18.598;2023-01-15T10:31:54;6.57;;;1.63;;
70270;SDS011;57680;54.292;18.598;2023-01-15T10:35:11;6.38;;;1.75;;
70270;SDS011;57680;54.292;18.598;2023-01-15T10:38:06;4.78;;;1.42;;
70270;SDS011;57680;54.292;18.598;2023-01-15T10:40:46;4.63;;;1.25;;
70270;SDS011;57680;54.292;18.598;2023-01-15T10:43:56;6.32;;;1.50;;
70270;SDS011;57680;54.292;18.598;2023-01-15T10:46:31;4.70;;;1.20;;
70270;SDS011;57680;54.292;18.598;2023-01-15T10:49:03;5.40;;;1.40;;
70270;SDS011;57680;54.292;18.598;2023-01-15T10:51:51;5.15;;;1.20;;
70270;SDS011;57680;54.292;18.598;2023-01-15T10:54:35;5.90;;;1.20;;
70270;SDS011;57680;54.292;18.598;2023-01-15T10:57:19;3.13;;;1.20;;
70270;SDS011;57680;54.292;18.598;2023-01-15T10:59:58;5.27;;;1.03;;
70270;SDS011;57680;54.292;18.598;2023-01-15T11:02:38;4.72;;;1.02;;
70270;SDS011;57680;54.292;18.598;2023-01-15T11:05:11;4.28;;;1.08;;
70270;SDS011;57680;54.292;18.598;2023-01-15T11:07:40;4.00;;;1.23;;
70270;SDS011;57680;54.292;18.598;2023-01-15T11:10:09;6.28;;;1.20;;
70270;SDS011;57680;54.292;18.598;2023-01-15T11:12:39;4.77;;;1.07;;
70270;SDS011;57680;54.292;18.598;2023-01-15T11:15:37;5.05;;;1.33;;
70270;SDS011;57680;54.292;18.598;2023-01-15T11:18:29;5.65;;;1.38;;
70270;SDS011;57680;54.292;18.598;2023-01-15T11:21:18;4.90;;;1.00;;
70270;SDS011;57680;54.292;18.598;2023-01-15T11:23:47;6.40;;;1.10;;
70270;SDS011;57680;54.292;18.598;2023-01-15T11:26:18;4.33;;;0.93;;
70270;SDS011;57680;54.292;18.598;2023-01-15T11:28:51;4.80;;;1.10;;
70270;SDS011;57680;54.292;18.598;2023-01-15T11:31:17;5.38;;;1.25;;
70270;SDS011;57680;54.292;18.598;2023-01-15T11:33:43;6.03;;;2.10;;
70270;SDS011;57680;54.292;18.598;2023-01-15T11:36:29;4.88;;;1.30;;
70270;SDS011;57680;54.292;18.598;2023-01-15T11:39:01;6.45;;;1.30;;
70270;SDS011;57680;54.292;18.598;2023-01-15T11:44:12;5.75;;;1.50;;
70270;SDS011;57680;54.292;18.598;2023-01-15T11:46:58;7.43;;;1.90;;
70270;SDS011;57680;54.292;18.598;2023-01-15T11:49:52;5.60;;;1.25;;
70270;SDS011;57680;54.292;18.598;2023-01-15T11:52:41;2.88;;;0.90;;
70270;SDS011;57680;54.292;18.598;2023-01-15T11:55:12;3.60;;;0.70;;
70270;SDS011;57680;54.292;18.598;2023-01-15T11:57:39;4.20;;;0.90;;
70270;SDS011;57680;54.292;18.598;2023-01-15T12:00:06;3.57;;;0.80;;
70270;SDS011;57680;54.292;18.598;2023-01-15T12:02:43;3.15;;;0.70;;
70270;SDS011;57680;54.292;18.598;2023-01-15T12:05:18;3.55;;;1.00;;
70270;SDS011;57680;54.292;18.598;2023-01-15T12:07:47;4.63;;;1.40;;
70270;SDS011;57680;54.292;18.598;2023-01-15T12:10:29;7.75;;;2.00;;
70270;SDS011;57680;54.292;18.598;2023-01-15T12:19:20;5.03;;;1.40;;
70270;SDS011;57680;54.292;18.598;2023-01-15T12:32:47;5.97;;;1.63;;
70270;SDS011;57680;54.292;18.598;2023-01-15T12:35:27;7.78;;;2.20;;
70270;SDS011;57680;54.292;18.598;2023-01-15T12:37:56;5.72;;;1.65;;
70270;SDS011;57680;54.292;18.598;2023-01-15T12:43:18;5.32;;;1.35;;
70270;SDS011;57680;54.292;18.598;2023-01-15T12:46:09;5.65;;;1.45;;
70270;SDS011;57680;54.292;18.598;2023-01-15T12:48:48;6.47;;;1.90;;
70270;SDS011;57680;54.292;18.598;2023-01-15T12:51:20;7.15;;;2.13;;
70270;SDS011;57680;54.292;18.598;2023-01-15T12:54:04;8.00;;;2.40;;
70270;SDS011;57680;54.292;18.598;2023-01-15T12:56:40;6.90;;;2.25;;
70270;SDS011;57680;54.292;18.598;2023-01-15T13:04:36;6.43;;;1.90;;
70270;SDS011;57680;54.292;18.598;2023-01-15T13:07:29;4.73;;;1.47;;
70270;SDS011;57680;54.292;18.598;2023-01-15T13:10:20;8.38;;;1.90;;
70270;SDS011;57680;54.292;18.598;2023-01-15T13:12:48;8.85;;;1.80;;
70270;SDS011;57680;54.292;18.598;2023-01-15T13:15:16;7.25;;;1.63;;
70270;SDS011;57680;54.292;18.598;2023-01-15T13:17:51;6.13;;;1.88;;
70270;SDS011;57680;54.292;18.598;2023-01-15T13:20:35;6.30;;;1.60;;
70270;SDS011;57680;54.292;18.598;2023-01-15T13:26:24;5.82;;;1.63;;
70270;SDS011;57680;54.292;18.598;2023-01-15T13:29:17;6.70;;;1.88;;
70270;SDS011;57680;54.292;18.598;2023-01-15T13:31:53;10.02;;;2.17;;
70270;SDS011;57680;54.292;18.598;2023-01-15T13:34:37;7.03;;;1.50;;
70270;SDS011;57680;54.292;18.598;2023-01-15T13:37:15;7.40;;;1.90;;
70270;SDS011;57680;54.292;18.598;2023-01-15T13:39:53;6.50;;;1.73;;
70270;SDS011;57680;54.292;18.598;2023-01-15T13:42:22;6.30;;;1.60;;
70270;SDS011;57680;54.292;18.598;2023-01-15T13:45:04;6.60;;;1.98;;
70270;SDS011;57680;54.292;18.598;2023-01-15T13:47:42;6.33;;;2.10;;
70270;SDS011;57680;54.292;18.598;2023-01-15T13:50:14;4.63;;;1.35;;
70270;SDS011;57680;54.292;18.598;2023-01-15T13:52:43;5.20;;;1.80;;
70270;SDS011;57680;54.292;18.598;2023-01-15T13:57:55;6.55;;;2.00;;
70270;SDS011;57680;54.292;18.598;2023-01-15T14:02:57;6.18;;;2.03;;
70270;SDS011;57680;54.292;18.598;2023-01-15T14:05:34;5.87;;;1.70;;
70270;SDS011;57680;54.292;18.598;2023-01-15T14:08:01;7.53;;;1.80;;
70270;SDS011;57680;54.292;18.598;2023-01-15T14:10:38;7.50;;;2.50;;
70270;SDS011;57680;54.292;18.598;2023-01-15T14:13:20;6.55;;;2.17;;
70270;SDS011;57680;54.292;18.598;2023-01-15T14:16:19;5.03;;;1.70;;
70270;SDS011;57680;54.292;18.598;2023-01-15T14:21:32;7.22;;;2.03;;
70270;SDS011;57680;54.292;18.598;2023-01-15T14:26:44;8.53;;;1.80;;
70270;SDS011;57680;54.292;18.598;2023-01-15T14:34:32;5.93;;;1.70;;
70270;SDS011;57680;54.292;18.598;2023-01-15T14:42:13;6.10;;;2.20;;
70270;SDS011;57680;54.292;18.598;2023-01-15T14:48:38;5.30;;;1.55;;
70270;SDS011;57680;54.292;18.598;2023-01-15T14:50:39;6.15;;;1.63;;
70270;SDS011;57680;54.292;18.598;2023-01-15T14:56:24;5.00;;;2.15;;
70270;SDS011;57680;54.292;18.598;2023-01-15T15:01:26;6.60;;;1.80;;
70270;SDS011;57680;54.292;18.598;2023-01-15T15:06:47;5.60;;;1.50;;
70270;SDS011;57680;54.292;18.598;2023-01-15T15:10:00;6.18;;;1.75;;
70270;SDS011;57680;54.292;18.598;2023-01-15T15:12:53;4.70;;;1.50;;
70270;SDS011;57680;54.292;18.598;2023-01-15T15:23:22;7.45;;;2.10;;
70270;SDS011;57680;54.292;18.598;2023-01-15T15:26:01;7.90;;;2.00;;
70270;SDS011;57680;54.292;18.598;2023-01-15T15:28:29;6.60;;;1.92;;
70270;SDS011;57680;54.292;18.598;2023-01-15T15:30:59;7.68;;;2.25;;
70270;SDS011;57680;54.292;18.598;2023-01-15T15:33:26;5.82;;;1.83;;
70270;SDS011;57680;54.292;18.598;2023-01-15T15:36:01;6.15;;;2.00;;
70270;SDS011;57680;54.292;18.598;2023-01-15T15:38:27;5.77;;;2.00;;
70270;SDS011;57680;54.292;18.598;2023-01-15T15:40:53;7.65;;;2.10;;
70270;SDS011;57680;54.292;18.598;2023-01-15T15:43:24;6.22;;;2.17;;
70270;SDS011;57680;54.292;18.598;2023-01-15T15:46:23;8.47;;;2.43;;
70270;SDS011;57680;54.292;18.598;2023-01-15T15:49:13;8.10;;;2.15;;
70270;SDS011;57680;54.292;18.598;2023-01-15T15:51:52;9.57;;;2.60;;
70270;SDS011;57680;54.292;18.598;2023-01-15T15:57:31;8.82;;;2.47;;
70270;SDS011;57680;54.292;18.598;2023-01-15T15:59:45;8.15;;;2.58;;
70270;SDS011;57680;54.292;18.598;2023-01-15T16:02:23;7.38;;;2.60;;
70270;SDS011;57680;54.292;18.598;2023-01-15T16:04:50;7.18;;;2.22;;
70270;SDS011;57680;54.292;18.598;2023-01-15T16:07:21;7.23;;;2.23;;
70270;SDS011;57680;54.292;18.598;2023-01-15T16:09:50;7.47;;;2.30;;
70270;SDS011;57680;54.292;18.598;2023-01-15T16:12:19;7.55;;;2.33;;
70270;SDS011;57680;54.292;18.598;2023-01-15T16:14:45;8.27;;;2.30;;
70270;SDS011;57680;54.292;18.598;2023-01-15T16:17:12;7.05;;;2.38;;
70270;SDS011;57680;54.292;18.598;2023-01-15T16:19:38;10.27;;;2.30;;
70270;SDS011;57680;54.292;18.598;2023-01-15T16:22:05;7.88;;;2.20;;
70270;SDS011;57680;54.292;18.598;2023-01-15T16:24:31;10.05;;;2.70;;
70270;SDS011;57680;54.292;18.598;2023-01-15T16:27:04;9.67;;;2.60;;
70270;SDS011;57680;54.292;18.598;2023-01-15T16:29:32;6.60;;;2.05;;
70270;SDS011;57680;54.292;18.598;2023-01-15T16:31:59;7.57;;;2.45;;
70270;SDS011;57680;54.292;18.598;2023-01-15T16:34:29;7.83;;;2.20;;
70270;SDS011;57680;54.292;18.598;2023-01-15T16:36:57;7.57;;;2.10;;
70270;SDS011;57680;54.292;18.598;2023-01-15T16:39:24;7.03;;;2.22;;
70270;SDS011;57680;54.292;18.598;2023-01-15T16:41:54;6.88;;;2.10;;
70270;SDS011;57680;54.292;18.598;2023-01-15T16:46:54;7.67;;;2.10;;
70270;SDS011;57680;54.292;18.598;2023-01-15T16:49:24;6.47;;;1.85;;
70270;SDS011;57680;54.292;18.598;2023-01-15T16:51:55;7.90;;;2.35;;
70270;SDS011;57680;54.292;18.598;2023-01-15T16:59:54;5.13;;;1.70;;
70270;SDS011;57680;54.292;18.598;2023-01-15T17:02:21;6.15;;;1.92;;
70270;SDS011;57680;54.292;18.598;2023-01-15T17:04:47;7.00;;;2.50;;
70270;SDS011;57680;54.292;18.598;2023-01-15T17:07:17;5.53;;;2.13;;
70270;SDS011;57680;54.292;18.598;2023-01-15T17:09:50;6.35;;;2.28;;
70270;SDS011;57680;54.292;18.598;2023-01-15T17:12:28;6.63;;;1.98;;
70270;SDS011;57680;54.292;18.598;2023-01-15T17:17:40;7.50;;;2.22;;
70270;SDS011;57680;54.292;18.598;2023-01-15T17:20:16;7.70;;;2.03;;
70270;SDS011;57680;54.292;18.598;2023-01-15T17:22:44;7.03;;;2.20;;
70270;SDS011;57680;54.292;18.598;2023-01-15T17:25:31;6.45;;;1.90;;